createdAt,value
2023-01-11T00:01:06.887Z,9.95
2023-01-11T00:03:35.388Z,10.02
2023-01-11T00:06:07.902Z,10.09
2023-01-11T00:08:36.051Z,10.12
2023-01-11T00:11:04.457Z,10.12
2023-01-11T00:13:33.077Z,10.12
2023-01-11T00:16:07.449Z,10.09
2023-01-11T00:18:36.671Z,9.99
2023-01-11T00:21:07.090Z,10.03
2023-01-11T00:23:35.955Z,10.05
2023-01-11T00:26:04.924Z,9.83
2023-01-11T00:28:33.352Z,9.94
2023-01-11T00:31:02.296Z,9.90
2023-01-11T00:33:30.475Z,9.85
2023-01-11T00:35:58.470Z,9.91
2023-01-11T00:38:51.317Z,9.99
2023-01-11T00:41:39.436Z,9.92
2023-01-11T00:44:28.155Z,9.99
2023-01-11T00:47:13.586Z,9.97
2023-01-11T00:49:42.114Z,9.97
2023-01-11T00:52:10.893Z,9.94
2023-01-11T00:54:42.053Z,9.98
2023-01-11T00:57:10.496Z,9.99
2023-01-11T00:59:40.551Z,10.02
2023-01-11T01:02:10.941Z,9.91
2023-01-11T01:04:39.882Z,10.00
2023-01-11T01:07:08.601Z,10.00
2023-01-11T01:09:36.683Z,10.02
2023-01-11T01:12:09.090Z,10.06
2023-01-11T01:14:36.968Z,10.02
2023-01-11T01:17:08.799Z,9.99
2023-01-11T01:19:39.371Z,9.99
2023-01-11T01:22:07.441Z,9.97
2023-01-11T01:24:35.948Z,9.87
2023-01-11T01:27:05.277Z,10.03
2023-01-11T01:29:33.404Z,10.07
2023-01-11T01:32:01.381Z,10.07
2023-01-11T01:34:29.632Z,10.04
2023-01-11T01:36:57.670Z,10.11
2023-01-11T01:39:25.717Z,10.15
2023-01-11T01:41:53.689Z,10.16
2023-01-11T01:45:07.633Z,10.15
2023-01-11T01:47:46.043Z,10.09
2023-01-11T01:50:21.429Z,10.13
2023-01-11T01:52:56.972Z,10.09
2023-01-11T01:55:30.896Z,10.11
2023-01-11T01:58:01.087Z,10.09
2023-01-11T02:00:30.636Z,10.09
2023-01-11T02:03:01.531Z,10.11
2023-01-11T02:05:29.837Z,10.09
2023-01-11T02:08:00.860Z,10.10
2023-01-11T02:10:29.150Z,10.13
2023-01-11T02:13:01.348Z,10.21
2023-01-11T02:15:31.321Z,10.18
2023-01-11T02:17:59.431Z,10.16
2023-01-11T02:20:48.772Z,10.13
2023-01-11T02:23:52.320Z,10.10
2023-01-11T02:26:59.050Z,10.18
2023-01-11T02:29:41.704Z,10.16
2023-01-11T02:32:26.501Z,10.21
2023-01-11T02:35:11.690Z,10.16
2023-01-11T02:37:52.323Z,10.15
2023-01-11T02:40:28.475Z,10.19
2023-01-11T02:43:24.017Z,10.21
2023-01-11T02:46:03.286Z,10.12
2023-01-11T02:48:39.320Z,10.13
2023-01-11T02:51:13.865Z,10.27
2023-01-11T02:53:47.374Z,10.22
2023-01-11T02:56:19.925Z,10.22
2023-01-11T02:58:51.901Z,10.23
2023-01-11T03:01:22.927Z,10.30
2023-01-11T03:03:51.156Z,10.31
2023-01-11T03:06:23.156Z,10.39
2023-01-11T03:09:23.807Z,10.41
2023-01-11T03:12:25.123Z,10.36
2023-01-11T03:15:09.007Z,10.32
2023-01-11T03:17:52.223Z,10.29
2023-01-11T03:20:25.441Z,10.30
2023-01-11T03:23:11.538Z,10.26
2023-01-11T03:25:53.928Z,10.41
2023-01-11T03:28:33.587Z,10.37
2023-01-11T03:31:07.705Z,10.38
2023-01-11T03:33:44.646Z,10.47
2023-01-11T03:36:20.749Z,10.33
2023-01-11T03:38:54.719Z,10.31
2023-01-11T03:41:27.976Z,10.40
2023-01-11T03:44:00.560Z,10.44
2023-01-11T03:46:32.206Z,10.44
2023-01-11T03:49:06.266Z,10.49
2023-01-11T03:51:39.817Z,10.54
2023-01-11T03:54:12.652Z,10.56
2023-01-11T03:56:48.593Z,10.56
2023-01-11T03:59:16.759Z,10.57
2023-01-11T04:01:45.409Z,10.64
2023-01-11T04:04:14.816Z,10.62
2023-01-11T04:06:43.041Z,10.68
2023-01-11T04:09:11.089Z,10.68
2023-01-11T04:11:39.161Z,10.69
2023-01-11T04:14:07.190Z,10.79
2023-01-11T04:16:35.463Z,10.63
2023-01-11T04:19:03.708Z,10.81
2023-01-11T04:21:32.992Z,10.76
2023-01-11T04:24:01.109Z,10.73
2023-01-11T04:26:29.213Z,10.69
2023-01-11T04:28:57.339Z,10.69
2023-01-11T04:31:25.494Z,10.79
2023-01-11T04:33:53.549Z,10.76
2023-01-11T04:36:21.562Z,10.81
2023-01-11T04:38:50.926Z,10.91
2023-01-11T04:41:36.491Z,10.85
2023-01-11T04:44:04.481Z,10.61
2023-01-11T04:46:32.539Z,10.78
2023-01-11T04:49:00.915Z,10.69
2023-01-11T04:51:28.999Z,10.65
2023-01-11T04:53:58.619Z,10.56
2023-01-11T04:56:26.724Z,10.63
2023-01-11T04:58:55.591Z,10.79
2023-01-11T05:01:23.656Z,10.72
2023-01-11T05:03:52.182Z,10.62
2023-01-11T05:06:22.394Z,10.64
2023-01-11T05:08:50.814Z,10.58
2023-01-11T05:11:20.439Z,10.64
2023-01-11T05:13:48.542Z,10.75
2023-01-11T05:16:19.342Z,10.72
2023-01-11T05:18:50.535Z,10.77
2023-01-11T05:21:20.972Z,10.81
2023-01-11T05:23:49.782Z,10.80
2023-01-11T05:26:22.783Z,10.76
2023-01-11T05:28:52.219Z,10.63
2023-01-11T05:31:20.421Z,10.58
2023-01-11T05:33:49.090Z,10.57
2023-01-11T05:36:20.680Z,10.58
2023-01-11T05:38:51.069Z,10.64
2023-01-11T05:41:26.776Z,10.64
2023-01-11T05:44:14.074Z,10.64
2023-01-11T05:46:44.648Z,10.61
2023-01-11T05:49:14.705Z,10.72
2023-01-11T05:51:44.142Z,10.67
2023-01-11T05:54:15.463Z,10.72
2023-01-11T05:56:44.887Z,10.72
2023-01-11T05:59:13.526Z,10.79
2023-01-11T06:01:41.903Z,10.77
2023-01-11T06:04:09.946Z,10.76
2023-01-11T06:06:38.402Z,10.83
2023-01-11T06:09:06.541Z,10.81
2023-01-11T06:11:34.574Z,10.76
2023-01-11T06:14:03.922Z,10.75
2023-01-11T06:16:32.049Z,10.83
2023-01-11T06:19:00.136Z,10.74
2023-01-11T06:21:28.500Z,10.85
2023-01-11T06:23:56.537Z,10.83
2023-01-11T06:26:25.152Z,10.97
2023-01-11T06:28:53.450Z,11.02
2023-01-11T06:31:22.832Z,10.97
2023-01-11T06:33:50.865Z,10.95
2023-01-11T06:36:20.073Z,10.96
2023-01-11T06:38:48.157Z,10.93
2023-01-11T06:41:16.686Z,10.93
2023-01-11T06:43:44.889Z,10.98
2023-01-11T06:46:14.619Z,11.08
2023-01-11T06:48:44.421Z,11.18
2023-01-11T06:51:13.324Z,11.17
2023-01-11T06:53:42.576Z,11.18
2023-01-11T06:56:14.726Z,11.16
2023-01-11T06:58:45.581Z,11.21
2023-01-11T07:01:15.094Z,11.16
2023-01-11T07:03:48.980Z,11.22
2023-01-11T07:06:17.421Z,11.26
2023-01-11T07:08:45.452Z,11.27
2023-01-11T07:11:14.052Z,11.21
2023-01-11T07:13:42.277Z,11.30
2023-01-11T07:16:10.470Z,11.38
2023-01-11T07:18:38.555Z,11.39
2023-01-11T07:21:08.046Z,11.41
2023-01-11T07:23:36.261Z,11.39
2023-01-11T07:26:04.310Z,11.31
2023-01-11T07:28:32.473Z,11.41
2023-01-11T07:31:00.589Z,11.32
2023-01-11T07:33:28.855Z,13.44
2023-01-11T07:35:58.147Z,14.74
2023-01-11T07:38:29.244Z,16.39
2023-01-11T07:40:57.379Z,17.17
2023-01-11T07:43:24.459Z,16.98
2023-01-11T07:45:53.980Z,17.15
2023-01-11T07:48:26.382Z,17.68
2023-01-11T07:50:55.821Z,18.04
2023-01-11T07:53:26.303Z,17.38
2023-01-11T07:55:56.492Z,16.41
2023-01-11T07:58:25.045Z,15.55
2023-01-11T08:00:53.248Z,14.88
2023-01-11T08:03:21.434Z,14.35
2023-01-11T08:05:52.453Z,13.79
2023-01-11T08:08:21.019Z,13.51
2023-01-11T08:11:09.058Z,13.23
2023-01-11T08:13:56.168Z,12.90
2023-01-11T08:16:24.765Z,12.64
2023-01-11T08:18:52.841Z,12.63
2023-01-11T08:21:21.360Z,12.51
2023-01-11T08:23:49.599Z,12.44
2023-01-11T08:26:18.032Z,12.33
2023-01-11T08:28:48.413Z,12.38
2023-01-11T08:31:16.809Z,12.45
2023-01-11T08:33:45.006Z,12.40
2023-01-11T08:38:43.164Z,12.31
2023-01-11T08:41:11.622Z,12.25
2023-01-11T08:43:40.500Z,12.27
2023-01-11T08:46:10.647Z,12.32
2023-01-11T08:48:38.734Z,12.37
2023-01-11T08:51:07.264Z,12.33
2023-01-11T08:53:35.290Z,12.33
2023-01-11T08:56:04.513Z,12.32
2023-01-11T08:58:32.532Z,12.30
2023-01-11T09:01:02.796Z,12.24
2023-01-11T09:03:32.556Z,12.25
2023-01-11T09:06:00.726Z,12.24
2023-01-11T09:08:29.660Z,12.24
2023-01-11T09:10:59.776Z,12.26
2023-01-11T09:13:28.493Z,12.24
2023-01-11T09:15:57.997Z,12.26
2023-01-11T09:18:26.820Z,12.33
2023-01-11T09:20:56.210Z,12.20
2023-01-11T09:23:24.215Z,12.23
2023-01-11T09:25:52.273Z,12.38
2023-01-11T09:28:20.408Z,12.40
2023-01-11T09:30:48.411Z,12.32
2023-01-11T09:33:16.532Z,12.39
2023-01-11T09:35:46.166Z,12.36
2023-01-11T09:38:15.598Z,12.32
2023-01-11T09:40:55.719Z,12.38
2023-01-11T09:43:28.680Z,12.41
2023-01-11T09:46:00.555Z,12.35
2023-01-11T09:48:37.240Z,12.42
2023-01-11T09:51:06.140Z,12.52
2023-01-11T09:53:38.424Z,12.53
2023-01-11T09:56:14.086Z,12.47
2023-01-11T09:58:56.412Z,12.52
2023-01-11T10:01:33.752Z,12.55
2023-01-11T10:04:53.452Z,12.52
2023-01-11T10:18:30.650Z,12.55
2023-01-11T10:19:40.203Z,12.56
2023-01-11T10:22:17.859Z,12.58
2023-01-11T10:24:51.117Z,12.59
2023-01-11T10:27:31.384Z,12.47
2023-01-11T10:30:17.699Z,12.52
2023-01-11T10:33:10.082Z,12.56
2023-01-11T10:35:58.909Z,12.56
2023-01-11T10:38:46.366Z,12.62
2023-01-11T10:41:26.125Z,12.68
2023-01-11T10:44:10.538Z,12.72
2023-01-11T10:46:43.735Z,12.72
2023-01-11T10:49:35.705Z,12.76
2023-01-11T10:52:23.509Z,12.76
2023-01-11T10:54:55.838Z,12.74
2023-01-11T10:57:59.497Z,12.74
2023-01-11T11:00:38.179Z,12.67
2023-01-11T11:03:37.625Z,12.71
2023-01-11T11:06:13.694Z,12.74
2023-01-11T11:08:53.982Z,12.69
2023-01-11T11:11:28.398Z,12.75
2023-01-11T11:14:03.671Z,12.82
2023-01-11T11:16:54.335Z,12.78
2023-01-11T11:19:26.347Z,12.79
2023-01-11T11:21:54.507Z,12.76
2023-01-11T11:24:32.420Z,12.74
2023-01-11T11:27:10.103Z,12.77
2023-01-11T11:29:44.593Z,12.92
2023-01-11T11:32:24.607Z,12.93
2023-01-11T11:34:53.842Z,12.93
2023-01-11T11:37:26.067Z,12.93
2023-01-11T11:39:56.214Z,12.98
2023-01-11T11:42:24.865Z,12.97
2023-01-11T11:45:16.947Z,12.96
2023-01-11T11:48:02.902Z,12.96
2023-01-11T11:50:44.297Z,12.92
2023-01-11T11:53:27.594Z,12.98
2023-01-11T11:55:56.125Z,12.95
2023-01-11T11:58:26.832Z,12.98
2023-01-11T12:00:55.811Z,13.01
2023-01-11T12:03:30.506Z,13.07
2023-01-11T12:06:01.801Z,13.03
2023-01-11T12:08:33.328Z,13.01
2023-01-11T12:11:05.034Z,13.04
2023-01-11T12:13:35.765Z,13.05
2023-01-11T12:16:07.467Z,13.05
2023-01-11T12:18:43.382Z,13.08
2023-01-11T12:21:21.148Z,13.09
2023-01-11T12:23:49.757Z,13.10
2023-01-11T12:26:22.853Z,13.08
2023-01-11T12:29:31.552Z,13.09
2023-01-11T12:32:14.778Z,13.03
2023-01-11T12:35:19.585Z,13.06
2023-01-11T12:38:24.169Z,13.11
2023-01-11T12:41:21.691Z,13.06
2023-01-11T12:44:05.137Z,13.08
2023-01-11T12:46:54.457Z,13.05
2023-01-11T12:49:40.691Z,13.01
2023-01-11T12:52:46.122Z,13.00
2023-01-11T12:55:30.435Z,13.05
2023-01-11T12:58:08.098Z,13.07
2023-01-11T13:00:59.898Z,13.05
2023-01-11T13:04:00.305Z,12.92
2023-01-11T13:06:38.106Z,12.94
2023-01-11T13:09:17.483Z,13.03
2023-01-11T13:11:59.730Z,13.04
2023-01-11T13:14:49.914Z,13.05
2023-01-11T13:17:29.035Z,13.00
2023-01-11T13:20:14.867Z,13.05
2023-01-11T13:22:50.021Z,13.09
2023-01-11T13:25:25.299Z,13.12
2023-01-11T13:27:55.499Z,13.06
2023-01-11T13:30:25.449Z,13.07
2023-01-11T13:32:59.171Z,13.03
2023-01-11T13:35:37.730Z,13.00
2023-01-11T13:38:17.096Z,13.02
2023-01-11T13:40:51.201Z,13.04
2023-01-11T13:43:26.816Z,12.94
2023-01-11T13:46:03.671Z,12.94
2023-01-11T13:48:38.481Z,13.00
2023-01-11T13:51:16.568Z,12.88
2023-01-11T13:53:54.392Z,12.88
2023-01-11T13:56:31.250Z,12.82
2023-01-11T13:59:06.459Z,12.85
2023-01-11T14:01:47.470Z,12.98
2023-01-11T14:04:23.035Z,12.74
2023-01-11T14:07:14.138Z,12.75
2023-01-11T14:10:27.202Z,12.76
2023-01-11T14:13:39.132Z,12.83
2023-01-11T14:16:15.258Z,12.70
2023-01-11T14:18:52.343Z,12.72
2023-01-11T14:21:31.167Z,12.73
2023-01-11T14:24:01.542Z,12.66
2023-01-11T14:26:54.633Z,12.59
2023-01-11T14:29:58.979Z,12.53
2023-01-11T14:33:01.342Z,12.47
2023-01-11T14:36:07.764Z,12.41
2023-01-11T14:39:40.892Z,12.32
2023-01-11T14:42:35.668Z,12.33
2023-01-11T14:45:20.155Z,12.35
2023-01-11T14:48:21.516Z,12.32
2023-01-11T14:51:11.657Z,12.29
2023-01-11T14:53:47.038Z,12.31
2023-01-11T14:56:47.584Z,12.37
2023-01-11T14:59:36.654Z,12.32
2023-01-11T15:02:17.263Z,12.16
2023-01-11T15:05:08.554Z,12.31
2023-01-11T15:07:42.912Z,12.26
2023-01-11T15:10:58.705Z,12.20
2023-01-11T15:13:32.586Z,12.14
2023-01-11T15:16:39.750Z,12.09
2023-01-11T15:19:13.573Z,12.17
2023-01-11T15:21:49.899Z,12.18
2023-01-11T15:24:28.888Z,12.02
2023-01-11T15:26:59.593Z,12.01
2023-01-11T15:29:31.018Z,12.13
2023-01-11T15:32:18.631Z,12.16
2023-01-11T15:34:49.540Z,12.07
2023-01-11T15:37:45.717Z,12.10
2023-01-11T15:40:24.771Z,11.96
2023-01-11T15:43:47.702Z,11.99
2023-01-11T15:47:01.480Z,12.04
2023-01-11T15:50:29.717Z,12.03
2023-01-11T15:53:29.563Z,12.05
2023-01-11T15:56:52.660Z,11.94
2023-01-11T16:00:19.130Z,12.03
2023-01-11T16:03:40.991Z,11.89
2023-01-11T16:06:19.694Z,11.79
2023-01-11T16:08:59.896Z,11.75
2023-01-11T16:11:39.210Z,11.77
2023-01-11T16:14:40.107Z,11.76
2023-01-11T16:17:14.071Z,11.72
2023-01-11T16:19:45.957Z,11.69
2023-01-11T16:22:19.632Z,11.58
2023-01-11T16:24:53.707Z,11.62
2023-01-11T16:27:27.561Z,11.67
2023-01-11T16:29:56.156Z,11.64
2023-01-11T16:32:26.954Z,11.69
2023-01-11T16:34:56.243Z,11.76
2023-01-11T16:37:31.383Z,11.74
2023-01-11T16:40:17.235Z,11.74
2023-01-11T16:42:52.090Z,11.67
2023-01-11T16:45:22.486Z,11.68
2023-01-11T16:48:05.758Z,11.66
2023-01-11T16:50:35.427Z,11.56
2023-01-11T16:53:06.235Z,11.56
2023-01-11T16:55:39.907Z,11.47
2023-01-11T16:58:22.976Z,11.55
2023-01-11T17:00:59.914Z,11.54
2023-01-11T17:03:31.991Z,11.61
2023-01-11T17:06:15.450Z,11.71
2023-01-11T17:08:47.315Z,11.61
2023-01-11T17:11:27.359Z,11.66
2023-01-11T17:14:25.276Z,11.66
2023-01-11T17:17:00.214Z,11.61
2023-01-11T17:19:31.032Z,11.66
2023-01-11T17:22:06.669Z,11.67
2023-01-11T17:24:42.638Z,11.67
2023-01-11T17:27:19.948Z,11.66
2023-01-11T17:29:49.920Z,11.64
2023-01-11T17:32:24.099Z,11.62
2023-01-11T17:34:53.859Z,11.65
2023-01-11T17:37:22.755Z,11.66
2023-01-11T17:39:53.956Z,11.71
2023-01-11T17:42:40.711Z,11.67
2023-01-11T17:45:21.135Z,11.52
2023-01-11T17:47:53.609Z,11.62
2023-01-11T17:50:29.959Z,11.68
2023-01-11T17:53:07.576Z,11.69
2023-01-11T17:55:36.908Z,11.56
2023-01-11T17:58:21.450Z,11.50
2023-01-11T18:01:22.357Z,11.40
2023-01-11T18:03:55.034Z,11.41
2023-01-11T18:06:35.004Z,11.33
2023-01-11T18:09:07.420Z,11.30
2023-01-11T18:11:40.438Z,11.31
2023-01-11T18:14:19.442Z,11.27
2023-01-11T18:17:00.756Z,11.18
2023-01-11T18:19:35.640Z,11.13
2023-01-11T18:22:05.404Z,11.18
2023-01-11T18:24:43.219Z,11.09
2023-01-11T18:27:28.392Z,11.00
2023-01-11T18:30:02.745Z,11.02
2023-01-11T18:32:37.563Z,11.11
2023-01-11T18:35:18.333Z,11.11
2023-01-11T18:37:46.783Z,11.08
2023-01-11T18:40:17.054Z,11.09
2023-01-11T18:42:49.129Z,11.05
2023-01-11T18:45:17.923Z,11.00
2023-01-11T18:47:46.134Z,10.98
2023-01-11T18:50:15.067Z,10.93
2023-01-11T18:52:43.116Z,10.83
2023-01-11T18:55:12.734Z,10.84
2023-01-11T18:57:41.773Z,10.90
2023-01-11T19:00:16.730Z,10.86
2023-01-11T19:02:45.595Z,10.79
2023-01-11T19:05:16.655Z,10.85
2023-01-11T19:07:44.873Z,10.84
2023-01-11T19:10:16.701Z,10.88
2023-01-11T19:12:45.677Z,10.85
2023-01-11T19:15:16.338Z,10.81
2023-01-11T19:17:44.605Z,10.76
2023-01-11T19:20:14.075Z,10.88
2023-01-11T19:22:42.713Z,10.91
2023-01-11T19:25:12.390Z,10.83
2023-01-11T19:27:40.458Z,10.82
2023-01-11T19:30:12.259Z,10.80
2023-01-11T19:32:41.606Z,10.79
2023-01-11T19:35:11.036Z,10.72
2023-01-11T19:37:39.533Z,10.68
2023-01-11T19:40:10.344Z,10.79
2023-01-11T19:42:40.099Z,10.75
2023-01-11T19:45:10.455Z,10.75
2023-01-11T19:47:39.596Z,10.69
2023-01-11T19:50:11.620Z,10.73
2023-01-11T19:52:40.055Z,10.67
2023-01-11T19:55:09.754Z,10.67
2023-01-11T19:57:37.989Z,10.66
2023-01-11T20:00:07.238Z,10.73
2023-01-11T20:02:42.597Z,10.73
2023-01-11T20:05:13.463Z,10.74
2023-01-11T20:07:41.520Z,10.61
2023-01-11T20:10:11.155Z,10.58
2023-01-11T20:12:39.239Z,10.63
2023-01-11T20:15:09.191Z,10.56
2023-01-11T20:17:37.904Z,10.52
2023-01-11T20:20:07.712Z,10.47
2023-01-11T20:22:37.589Z,10.45
2023-01-11T20:25:07.199Z,10.32
2023-01-11T20:27:35.445Z,10.30
2023-01-11T20:30:03.492Z,10.53
2023-01-11T20:32:41.535Z,10.59
2023-01-11T20:35:11.584Z,10.48
2023-01-11T20:37:41.098Z,10.55
2023-01-11T20:40:14.157Z,10.59
2023-01-11T20:42:42.557Z,10.65
2023-01-11T20:45:12.283Z,10.59
2023-01-11T20:47:40.327Z,10.69
2023-01-11T20:50:10.051Z,10.72
2023-01-11T20:52:38.175Z,10.73
2023-01-11T20:55:09.289Z,10.64
2023-01-11T20:57:37.278Z,10.69
2023-01-11T21:02:38.152Z,10.53
2023-01-11T21:05:07.206Z,10.59
2023-01-11T21:07:35.295Z,10.49
2023-01-11T21:10:03.402Z,10.58
2023-01-11T21:12:32.771Z,10.72
2023-01-11T21:15:00.762Z,10.64
2023-01-11T21:17:28.744Z,10.65
2023-01-11T21:19:56.687Z,10.68
2023-01-11T21:22:24.735Z,10.71
2023-01-11T21:24:52.738Z,10.65
2023-01-11T21:27:20.863Z,10.66
2023-01-11T21:29:50.367Z,10.74
2023-01-11T21:32:18.417Z,10.74
2023-01-11T21:34:46.453Z,10.63
2023-01-11T21:37:14.499Z,10.57
2023-01-11T21:39:42.575Z,10.75
2023-01-11T21:42:10.575Z,10.66
2023-01-11T21:44:38.591Z,10.67
2023-01-11T21:47:08.324Z,10.69
2023-01-11T21:49:36.354Z,10.71
2023-01-11T21:52:04.501Z,10.80
2023-01-11T21:54:32.620Z,10.74
2023-01-11T21:57:00.900Z,10.68
2023-01-11T21:59:29.993Z,10.72
2023-01-11T22:01:58.657Z,10.65
2023-01-11T22:04:28.004Z,10.66
2023-01-11T22:06:57.208Z,10.63
2023-01-11T22:09:26.751Z,10.57
2023-01-11T22:11:55.390Z,10.54
2023-01-11T22:14:23.488Z,10.57
2023-01-11T22:16:51.878Z,10.57
2023-01-11T22:19:20.628Z,10.40
2023-01-11T22:21:50.054Z,10.46
2023-01-11T22:24:18.358Z,10.48
2023-01-11T22:26:46.448Z,10.44
2023-01-11T22:29:15.727Z,10.46
2023-01-11T22:31:47.863Z,10.47
2023-01-11T22:34:16.523Z,10.45
2023-01-11T22:36:45.594Z,10.48
2023-01-11T22:39:17.164Z,10.53
2023-01-11T22:41:46.184Z,10.51
2023-01-11T22:44:15.496Z,10.50
2023-01-11T22:46:44.199Z,10.42
2023-01-11T22:49:12.989Z,10.50
2023-01-11T22:51:42.710Z,10.59
2023-01-11T22:54:11.429Z,10.59
2023-01-11T22:56:41.491Z,10.59
2023-01-11T22:59:09.996Z,10.57
2023-01-11T23:01:40.841Z,10.58
2023-01-11T23:04:13.121Z,10.58
2023-01-11T23:06:43.069Z,10.61
2023-01-11T23:09:16.207Z,10.55
2023-01-11T23:12:04.371Z,10.48
2023-01-11T23:14:33.766Z,10.47
2023-01-11T23:17:05.124Z,10.55
2023-01-11T23:19:33.748Z,10.56
2023-01-11T23:22:01.797Z,10.54
2023-01-11T23:24:29.956Z,10.55
2023-01-11T23:26:59.532Z,10.47
2023-01-11T23:29:27.770Z,10.43
2023-01-11T23:31:55.946Z,10.34
2023-01-11T23:34:24.501Z,10.32
2023-01-11T23:36:52.524Z,10.33
2023-01-11T23:39:20.905Z,10.24
2023-01-11T23:42:06.631Z,10.33
2023-01-11T23:44:36.289Z,10.21
2023-01-11T23:47:23.618Z,10.18
2023-01-11T23:49:53.534Z,10.27
2023-01-11T23:52:24.508Z,10.33
2023-01-11T23:54:52.934Z,10.21
2023-01-11T23:57:25.501Z,10.19
2023-01-11T23:59:54.971Z,10.29
